Time;durP1;ratioP1;P1;durP2;ratioP2;P2;SDS_P1;SDS_P2;PMS_P1;PMS_P2;Temp;Humidity;BMP_temperature;BMP_pressure;BME280_temperature;BME280_humidity;BME280_pressure;Samples;Min_cycle;Max_cycle;Signal;HPM_P1;HPM_P2
2023/10/13 00:00:29;;;;;;;11.38;5.10;;;;;;;;;;5038826;28;20033;-82
2023/10/13 00:03:00;;;;;;;9.70;4.78;;;;;;;;;;5036431;28;21594;-83
2023/10/13 00:05:26;;;;;;;11.90;5.78;;;;;;;;;;5033767;28;21964;-82
2023/10/13 00:07:53;;;;;;;11.02;4.63;;;;;;;;;;5035369;28;20036;-83
2023/10/13 00:10:21;;;;;;;10.90;4.90;;;;;;;;;;5035495;28;20565;-83
2023/10/13 00:12:49;;;;;;;11.95;5.70;;;;;;;;;;5034834;28;20067;-82
2023/10/13 00:15:16;;;;;;;13.90;5.72;;;;;;;;;;5040593;28;20025;-81
2023/10/13 00:17:42;;;;;;;15.20;6.00;;;;;;;;;;5030255;28;20033;-82
2023/10/13 00:20:56;;;;;;;13.35;6.63;;;;;;;;;;5039427;28;20029;-83
2023/10/13 00:22:57;;;;;;;12.98;6.25;;;;;;;;;;5037793;28;20039;-82
2023/10/13 00:25:27;;;;;;;8.98;4.90;;;;;;;;;;5041379;28;20037;-83
2023/10/13 00:27:53;;;;;;;14.75;5.10;;;;;;;;;;5031664;28;20029;-82
2023/10/13 00:30:22;;;;;;;12.02;6.32;;;;;;;;;;5063354;28;20047;-81
2023/10/13 00:32:56;;;;;;;14.60;5.15;;;;;;;;;;5044382;28;20048;-83
2023/10/13 00:35:26;;;;;;;13.30;5.35;;;;;;;;;;5032519;28;20030;-83
2023/10/13 00:37:55;;;;;;;18.13;6.35;;;14.40;99.90;;;;;;5031758;28;20025;-83
2023/10/13 00:42:59;;;;;;;13.07;6.47;;;;;;;;;;5033255;28;20029;-83
2023/10/13 00:45:28;;;;;;;16.27;6.38;;;;;;;;;;5038699;28;20481;-83
2023/10/13 00:48:01;;;;;;;12.65;6.15;;;;;;;;;;5030102;28;20044;-82
2023/10/13 00:50:27;;;;;;;12.18;5.88;;;;;;;;;;5034504;28;20033;-82
2023/10/13 00:52:53;;;;;;;11.05;4.68;;;;;;;;;;5044928;28;20033;-83
2023/10/13 00:55:22;;;;;;;12.60;5.53;;;14.20;99.90;;;;;;5040171;28;20029;-83
2023/10/13 00:57:57;;;;;;;10.35;5.78;;;;;;;;;;5046103;28;20499;-82
2023/10/13 01:00:28;;;;;;;19.65;5.68;;;;;;;;;;5037830;28;20414;-82
2023/10/13 01:03:04;;;;;;;18.20;5.78;;;;;;;;;;5034711;28;20490;-81
2023/10/13 01:05:32;;;;;;;12.30;6.00;;;;;;;;;;5031631;28;20378;-83
2023/10/13 01:08:01;;;;;;;11.38;5.50;;;;;;;;;;5035474;28;20037;-82
2023/10/13 01:10:27;;;;;;;15.95;5.97;;;;;;;;;;5032116;28;20095;-83
2023/10/13 01:12:59;;;;;;;18.10;6.05;;;;;;;;;;5040948;28;20029;-81
2023/10/13 01:15:29;;;;;;;13.15;4.85;;;;;;;;;;5034442;28;20481;-82
2023/10/13 01:18:11;;;;;;;12.82;5.78;;;;;;;;;;5036130;28;20033;-83
2023/10/13 01:20:45;;;;;;;9.93;4.55;;;14.50;99.90;;;;;;5039901;28;20024;-82
2023/10/13 01:23:18;;;;;;;12.88;5.25;;;;;;;;;;5035566;28;20036;-81
2023/10/13 01:25:45;;;;;;;14.43;4.90;;;14.50;99.90;;;;;;5032435;28;20082;-81
2023/10/13 01:28:15;;;;;;;11.00;5.15;;;;;;;;;;5037505;28;20088;-83
2023/10/13 01:30:42;;;;;;;10.85;4.95;;;;;;;;;;5032640;28;20103;-83
2023/10/13 01:33:10;;;;;;;15.73;6.55;;;;;;;;;;5031795;28;20037;-82
2023/10/13 01:35:41;;;;;;;11.23;5.32;;;;;;;;;;5035508;28;20056;-82
2023/10/13 01:38:08;;;;;;;11.70;4.97;;;;;;;;;;5036847;28;20069;-81
2023/10/13 01:40:34;;;;;;;12.50;6.05;;;;;;;;;;5035915;28;20018;-81
2023/10/13 01:43:01;;;;;;;11.57;5.05;;;14.30;99.90;;;;;;5039344;28;20029;-82
2023/10/13 01:45:31;;;;;;;11.65;5.82;;;;;;;;;;5033842;28;20544;-82
2023/10/13 01:47:57;;;;;;;15.88;6.55;;;;;;;;;;5033609;28;20033;-84
2023/10/13 01:50:30;;;;;;;12.52;5.63;;;;;;;;;;5035768;28;20033;-82
2023/10/13 01:53:11;;;;;;;17.20;5.78;;;;;;;;;;5038069;28;20032;-82
2023/10/13 01:55:44;;;;;;;15.30;5.53;;;13.70;99.90;;;;;;5036056;28;20128;-82
2023/10/13 01:58:16;;;;;;;9.48;5.53;;;14.20;99.90;;;;;;5037216;28;20541;-82
2023/10/13 02:00:43;;;;;;;11.90;6.18;;;;;;;;;;5025932;28;20033;-82
2023/10/13 02:03:15;;;;;;;15.57;6.22;;;;;;;;;;5039072;28;20101;-82
2023/10/13 02:05:46;;;;;;;13.02;5.82;;;;;;;;;;5038278;28;20482;-82
2023/10/13 02:08:17;;;;;;;10.68;5.03;;;;;;;;;;5040525;28;20128;-82
2023/10/13 02:10:43;;;;;;;11.65;4.72;;;;;;;;;;5038323;28;20501;-82
2023/10/13 02:13:17;;;;;;;12.93;5.80;;;;;;;;;;5036106;28;20526;-82
2023/10/13 02:15:44;;;;;;;11.20;5.50;;;;;;;;;;5033365;28;20084;-82
2023/10/13 02:18:10;;;;;;;13.18;7.07;;;;;;;;;;5038418;28;20104;-82
2023/10/13 02:20:42;;;;;;;11.63;5.28;;;;;;;;;;5035082;28;20064;-82
2023/10/13 02:23:12;;;;;;;15.85;6.65;;;;;;;;;;5030973;28;20045;-82
2023/10/13 02:25:45;;;;;;;10.07;5.57;;;;;;;;;;5032051;28;20024;-83
2023/10/13 02:28:15;;;;;;;7.97;4.15;;;;;;;;;;5036824;28;20507;-83
2023/10/13 02:30:45;;;;;;;13.95;6.80;;;;;;;;;;5029107;28;20378;-83
2023/10/13 02:33:14;;;;;;;10.73;5.07;;;;;;;;;;5031075;28;20497;-81
2023/10/13 02:35:53;;;;;;;10.68;4.75;;;;;;;;;;5016573;28;20033;-83
2023/10/13 02:38:26;;;;;;;12.27;4.68;;;;;;;;;;5032777;28;20086;-82
2023/10/13 02:40:54;;;;;;;10.52;4.57;;;;;;;;;;5034891;28;20310;-82
2023/10/13 02:43:21;;;;;;;9.88;5.32;;;;;;;;;;5041691;28;20112;-82
2023/10/13 02:45:57;;;;;;;8.95;4.88;;;;;;;;;;5034076;28;20037;-82
2023/10/13 02:48:23;;;;;;;13.45;5.00;;;;;;;;;;5033998;28;20052;-81
2023/10/13 02:50:55;;;;;;;11.32;4.53;;;;;;;;;;5038641;28;20451;-83
2023/10/13 02:53:21;;;;;;;9.13;4.70;;;;;;;;;;5031319;28;20401;-83
2023/10/13 02:55:55;;;;;;;12.05;5.03;;;;;;;;;;5027962;28;20034;-81
2023/10/13 02:58:21;;;;;;;11.60;5.25;;;;;;;;;;5032448;28;20021;-82
2023/10/13 03:00:52;;;;;;;11.00;5.32;;;;;;;;;;5030018;28;20036;-82
2023/10/13 03:03:19;;;;;;;7.82;4.28;;;;;;;;;;5027118;28;20505;-81
2023/10/13 03:05:45;;;;;;;11.02;5.03;;;;;;;;;;5057744;28;20017;-81
2023/10/13 03:08:11;;;;;;;12.10;5.13;;;;;;;;;;5049827;28;20037;-82
2023/10/13 03:10:46;;;;;;;12.05;5.40;;;;;;;;;;5039387;28;20110;-82
2023/10/13 03:13:12;;;;;;;13.95;5.55;;;;;;;;;;5055296;28;20029;-82
2023/10/13 03:15:38;;;;;;;12.32;5.68;;;;;;;;;;5054849;28;20193;-82
2023/10/13 03:18:04;;;;;;;9.57;4.25;;;;;;;;;;5059880;28;20025;-82
2023/10/13 03:20:33;;;;;;;10.93;4.90;;;;;;;;;;5057022;28;20030;-83
2023/10/13 03:22:59;;;;;;;14.55;4.95;;;;;;;;;;5051455;28;20033;-83
2023/10/13 03:25:29;;;;;;;8.77;4.28;;;;;;;;;;5055063;28;20052;-81
2023/10/13 03:30:35;;;;;;;9.40;5.00;;;;;;;;;;5050399;28;20072;-83
2023/10/13 03:33:47;;;;;;;9.07;5.15;;;;;;;;;;5040896;28;20025;-81
2023/10/13 03:35:58;;;;;;;12.55;6.53;;;;;;;;;;5025609;28;20758;-82
2023/10/13 03:38:27;;;;;;;8.57;4.25;;;12.50;99.90;;;;;;5038972;28;20025;-82
2023/10/13 03:40:56;;;;;;;10.90;4.90;;;;;;;;;;5031449;28;20025;-82
2023/10/13 03:43:23;;;;;;;12.73;5.57;;;;;;;;;;5042552;28;20388;-83
2023/10/13 03:46:07;;;;;;;16.58;5.30;;;;;;;;;;5029009;28;20033;-82
2023/10/13 03:48:40;;;;;;;8.43;4.53;;;;;;;;;;5037010;28;21062;-82
2023/10/13 03:51:06;;;;;;;11.52;5.50;;;;;;;;;;5031420;28;20095;-82
2023/10/13 03:53:34;;;;;;;10.00;5.53;;;13.60;99.90;;;;;;5028103;28;20813;-82
2023/10/13 03:56:12;;;;;;;12.30;5.70;;;;;;;;;;5028436;28;20112;-81
2023/10/13 03:58:53;;;;;;;11.05;5.35;;;;;;;;;;5018985;28;20133;-82
2023/10/13 04:01:24;;;;;;;12.30;5.82;;;;;;;;;;5027802;28;20037;-82
2023/10/13 04:03:57;;;;;;;14.70;5.75;;;;;;;;;;5039275;28;20111;-82
2023/10/13 04:17:22;;;;;;;17.10;7.50;;;;;;;;;;5038462;28;20068;-81
2023/10/13 04:28:27;;;;;;;15.20;5.70;;;;;;;;;;5029204;28;20044;-82
2023/10/13 04:39:09;;;;;;;12.45;5.90;;;13.40;99.90;;;;;;5022747;28;20078;-83
2023/10/13 04:41:42;;;;;;;10.32;5.50;;;13.30;99.90;;;;;;5019670;28;20497;-83
2023/10/13 04:52:12;;;;;;;13.75;6.25;;;;;;;;;;5030437;28;20123;-83
2023/10/13 06:29:40;;;;;;;10.02;5.05;;;;;;;;;;5037824;28;21088;-84
2023/10/13 06:32:12;;;;;;;12.88;5.72;;;;;;;;;;5036776;28;20448;-83
2023/10/13 06:34:44;;;;;;;10.47;6.07;;;;;;;;;;5039086;28;20052;-83
2023/10/13 06:37:26;;;;;;;14.02;6.22;;;;;;;;;;5043685;28;20116;-82
2023/10/13 06:39:56;;;;;;;9.57;4.78;;;;;;;;;;5046034;28;20020;-84
2023/10/13 06:42:28;;;;;;;13.07;6.07;;;;;;;;;;5026057;28;20052;-83
2023/10/13 06:44:55;;;;;;;9.80;5.07;;;12.20;99.90;;;;;;5039149;28;20025;-83
2023/10/13 06:47:21;;;;;;;12.50;5.88;;;;;;;;;;5034297;28;20060;-83
2023/10/13 06:49:51;;;;;;;14.27;5.85;;;12.00;99.90;;;;;;5040768;28;20107;-83
2023/10/13 06:52:22;;;;;;;17.08;5.80;;;;;;;;;;5042862;28;20430;-83
2023/10/13 06:54:50;;;;;;;9.43;5.53;;;12.90;99.90;;;;;;5036734;28;20025;-83
2023/10/13 06:57:20;;;;;;;10.52;5.18;;;;;;;;;;5032873;28;20086;-83
2023/10/13 06:59:46;;;;;;;12.35;5.60;;;;;;;;;;5043278;28;20028;-83
2023/10/13 07:02:21;;;;;;;11.15;5.47;;;;;;;;;;5031516;28;20474;-83
2023/10/13 07:05:03;;;;;;;12.98;4.78;;;;;;;;;;5039970;28;20029;-83
2023/10/13 07:07:30;;;;;;;13.35;5.88;;;;;;;;;;5027998;28;20038;-83
2023/10/13 07:09:58;;;;;;;11.35;5.82;;;;;;;;;;5038213;28;20113;-83
2023/10/13 07:12:27;;;;;;;9.60;5.05;;;;;;;;;;5038463;28;20040;-83
2023/10/13 07:14:59;;;;;;;12.32;5.35;;;;;;;;;;5036047;28;20033;-83
2023/10/13 07:17:25;;;;;;;12.80;5.28;;;;;;;;;;5037206;28;20021;-83
2023/10/13 07:19:56;;;;;;;10.88;5.95;;;;;;;;;;5033502;28;20547;-83
2023/10/13 07:22:28;;;;;;;7.60;4.22;;;;;;;;;;5029426;28;20025;-83
2023/10/13 07:24:58;;;;;;;15.43;5.82;;;;;;;;;;5040824;28;20557;-83
2023/10/13 07:27:24;;;;;;;16.75;5.65;;;;;;;;;;5032690;28;20032;-83
2023/10/13 07:30:06;;;;;;;8.32;4.75;;;13.50;99.90;;;;;;5040786;28;20159;-83
2023/10/13 07:32:33;;;;;;;13.68;5.72;;;;;;;;;;5038322;28;20110;-83
2023/10/13 07:35:11;;;;;;;14.52;5.70;;;;;;;;;;5032953;28;20393;-83
2023/10/13 07:37:41;;;;;;;9.98;5.38;;;;;;;;;;5036503;28;20156;-83
2023/10/13 07:40:21;;;;;;;13.50;6.05;;;;;;;;;;5034814;28;20025;-85
2023/10/13 07:42:47;;;;;;;11.85;5.45;;;;;;;;;;5042351;28;20033;-84
2023/10/13 07:45:13;;;;;;;12.30;5.18;;;;;;;;;;5031809;28;20091;-84
2023/10/13 07:47:39;;;;;;;10.63;5.60;;;;;;;;;;5036428;28;20029;-84
2023/10/13 07:50:06;;;;;;;13.55;6.13;;;;;;;;;;5036840;28;20485;-85
2023/10/13 07:52:54;;;;;;;11.05;6.28;;;;;;;;;;5024361;28;20037;-85
2023/10/13 07:55:24;;;;;;;15.45;5.78;;;;;;;;;;5038435;28;20021;-85
2023/10/13 07:57:59;;;;;;;14.27;5.20;;;;;;;;;;5045032;28;20013;-85
2023/10/13 08:03:17;;;;;;;14.32;6.72;;;;;;;;;;5045853;28;20043;-85
2023/10/13 08:05:58;;;;;;;16.50;6.70;;;;;;;;;;5046764;28;20493;-85
2023/10/13 08:08:40;;;;;;;17.35;7.20;;;;;;;;;;5040691;28;20040;-86
2023/10/13 08:11:25;;;;;;;20.00;9.55;;;;;;;;;;5062533;28;20017;-86
2023/10/13 08:13:54;;;;;;;19.30;9.90;;;;;;;;;;5033983;28;20076;-85
2023/10/13 08:16:22;;;;;;;18.23;9.77;;;;;;;;;;5041800;28;20029;-85
2023/10/13 08:18:49;;;;;;;17.42;7.93;;;;;;;;;;5040592;28;20559;-85
2023/10/13 08:21:22;;;;;;;8.20;4.50;;;;;;;;;;5039275;28;20029;-85
2023/10/13 08:26:30;;;;;;;6.37;2.20;;;;;;;;;;5044735;28;20025;-85
2023/10/13 08:32:13;;;;;;;6.93;2.88;;;;;;;;;;5049698;28;20045;-85
2023/10/13 08:37:28;;;;;;;4.80;1.98;;;;;;;;;;5038654;28;20026;-84
2023/10/13 08:45:53;;;;;;;4.60;1.70;;;27.90;99.50;;;;;;5033140;28;20051;-86
2023/10/13 08:48:09;;;;;;;3.33;1.55;;;;;;;;;;5035889;28;20468;-86
2023/10/13 08:53:31;;;;;;;6.70;1.85;;;24.00;99.90;;;;;;5041977;28;20032;-86
2023/10/13 08:56:06;;;;;;;4.35;2.03;;;23.30;99.90;;;;;;5048531;28;20021;-86
2023/10/13 08:59:09;;;;;;;4.82;1.63;;;;;;;;;;5046460;28;20057;-86
2023/10/13 09:09:58;;;;;;;9.27;2.40;;;;;;;;;;5036637;28;20091;-86
2023/10/13 09:14:57;;;;;;;;;;;;;;;;;;5031724;28;20037;-86
2023/10/13 09:19:59;;;;;;;5.07;1.67;;;;;;;;;;5036935;28;20032;-88
2023/10/13 09:22:35;;;;;;;6.18;2.33;;;;;;;;;;5034100;28;20025;-87
2023/10/13 09:25:02;;;;;;;9.35;2.25;;;;;;;;;;5039860;28;20043;-87
2023/10/13 09:27:29;;;;;;;9.40;2.30;;;;;;;;;;5043709;28;20067;-88
2023/10/13 09:29:56;;;;;;;7.22;2.50;;;;;;;;;;5035662;28;20053;-87
2023/10/13 09:32:22;;;;;;;3.70;1.63;;;;;;;;;;5046157;28;20079;-86
2023/10/13 09:34:51;;;;;;;4.38;1.70;;;;;;;;;;5035261;28;20397;-89
2023/10/13 09:37:24;;;;;;;10.98;2.53;;;;;;;;;;5047422;28;20066;-88
2023/10/13 09:39:57;;;;;;;5.57;2.03;;;;;;;;;;5041321;28;20019;-88
2023/10/13 09:42:26;;;;;;;7.95;2.67;;;;;;;;;;5037613;28;20052;-88
2023/10/13 09:44:55;;;;;;;6.10;2.10;;;;;;;;;;5037889;28;20029;-88
2023/10/13 09:47:36;;;;;;;5.75;2.20;;;20.90;99.90;;;;;;5034542;28;21551;-88
2023/10/13 09:50:05;;;;;;;4.07;1.77;;;;;;;;;;5032032;28;20029;-89
2023/10/13 09:52:31;;;;;;;6.10;1.83;;;;;;;;;;5041372;28;20028;-88
2023/10/13 09:55:28;;;;;;;3.85;1.85;;;21.20;99.90;;;;;;5032337;28;20037;-88
2023/10/13 09:57:59;;;;;;;8.32;1.77;;;;;;;;;;5038285;28;20033;-88
2023/10/13 10:06:14;;;;;;;2.60;1.30;;;;;;;;;;5037661;28;20072;-88
2023/10/13 10:08:48;;;;;;;3.00;1.38;;;;;;;;;;5034298;28;20043;-89
2023/10/13 10:11:26;;;;;;;4.63;1.27;;;;;;;;;;5034158;28;20055;-89
2023/10/13 10:13:58;;;;;;;4.13;1.88;;;;;;;;;;5037565;28;20033;-88
2023/10/13 10:16:36;;;;;;;3.05;1.27;;;;;;;;;;5032025;28;20081;-88
2023/10/13 10:19:02;;;;;;;4.63;1.23;;;;;;;;;;5041509;28;20026;-88
2023/10/13 10:21:35;;;;;;;3.63;1.55;;;;;;;;;;5040641;28;20298;-89
2023/10/13 10:24:07;;;;;;;6.47;1.75;;;;;;;;;;5041060;28;20025;-88
2023/10/13 10:26:33;;;;;;;7.57;1.27;;;;;;;;;;5037510;28;20470;-88
2023/10/13 10:29:07;;;;;;;4.88;1.67;;;;;;;;;;5043483;28;20123;-88
2023/10/13 10:31:41;;;;;;;6.50;2.53;;;;;;;;;;5032925;28;20030;-88
2023/10/13 10:34:19;;;;;;;2.78;1.13;;;;;;;;;;5028032;28;20018;-89
2023/10/13 10:36:53;;;;;;;6.70;1.90;;;;;;;;;;5032972;28;20025;-88
2023/10/13 10:39:21;;;;;;;4.15;1.55;;;;;;;;;;5041806;28;20025;-88
2023/10/13 10:41:54;;;;;;;4.53;1.23;;;;;;;;;;5036405;28;20025;-88
2023/10/13 10:44:33;;;;;;;2.63;1.38;;;;;;;;;;5037119;28;20033;-88
2023/10/13 10:47:11;;;;;;;7.40;1.70;;;;;;;;;;5040110;28;20044;-88
2023/10/13 10:49:41;;;;;;;4.80;1.25;;;;;;;;;;5033990;28;20470;-88
2023/10/13 10:52:18;;;;;;;3.22;1.52;;;;;;;;;;5039660;28;20020;-88
2023/10/13 10:54:45;;;;;;;2.13;1.30;;;;;;;;;;5033144;28;20093;-88
2023/10/13 10:57:18;;;;;;;4.70;1.55;;;;;;;;;;5050838;28;20044;-89
2023/10/13 10:59:44;;;;;;;3.65;1.98;;;;;;;;;;5057037;28;20021;-88
2023/10/13 11:02:15;;;;;;;6.22;1.58;;;;;;;;;;5033923;28;20028;-87
2023/10/13 11:04:50;;;;;;;3.28;1.38;;;;;;;;;;5033574;28;20405;-88
2023/10/13 11:07:21;;;;;;;6.68;1.85;;;;;;;;;;5042952;28;20155;-88
2023/10/13 11:09:47;;;;;;;3.00;1.30;;;;;;;;;;5035398;28;20025;-88
2023/10/13 11:12:27;;;;;;;2.30;1.23;;;;;;;;;;5024729;28;20033;-89
2023/10/13 11:15:05;;;;;;;5.70;1.50;;;;;;;;;;5037546;28;20031;-88
2023/10/13 11:17:48;;;;;;;8.23;1.83;;;;;;;;;;5041007;28;20060;-89
2023/10/13 11:20:17;;;;;;;2.70;1.55;;;;;;;;;;5041211;28;20024;-88
2023/10/13 11:22:50;;;;;;;5.03;1.58;;;;;;;;;;5040491;28;20032;-88
2023/10/13 11:25:22;;;;;;;;;;;23.80;97.50;;;;;;5033296;28;20123;-90
2023/10/13 11:33:28;;;;;;;6.80;1.88;;;;;;;;;;5041844;28;20025;-87
2023/10/13 11:38:27;;;;;;;6.95;1.88;;;;;;;;;;5038731;28;20032;-89
2023/10/13 11:41:08;;;;;;;2.72;1.20;;;;;;;;;;5039405;28;20552;-88
2023/10/13 11:48:41;;;;;;;2.95;1.35;;;;;;;;;;5040926;28;20120;-89
2023/10/13 11:51:08;;;;;;;4.25;1.58;;;;;;;;;;5046802;28;20009;-89
2023/10/13 11:53:36;;;;;;;5.18;1.40;;;;;;;;;;5041601;28;20036;-90
2023/10/13 11:56:09;;;;;;;4.75;1.63;;;;;;;;;;5042040;28;20036;-89
2023/10/13 11:58:39;;;;;;;5.90;1.83;;;;;;;;;;5035517;28;20136;-88
2023/10/13 12:11:50;;;;;;;6.10;1.20;;;;;;;;;;5042012;28;20029;-88
2023/10/13 12:14:17;;;;;;;3.57;1.33;;;;;;;;;;5039774;28;20118;-89
2023/10/13 12:16:51;;;;;;;2.95;1.63;;;;;;;;;;5045505;28;20031;-88
2023/10/13 12:19:18;;;;;;;3.58;1.20;;;;;;;;;;5042823;28;20028;-88
2023/10/13 12:21:44;;;;;;;6.28;1.38;;;;;;;;;;5035503;28;20088;-86
2023/10/13 12:24:21;;;;;;;6.13;1.95;;;;;;;;;;5039744;28;20029;-87
2023/10/13 12:26:47;;;;;;;4.72;1.55;;;;;;;;;;5040610;28;20036;-88
2023/10/13 12:29:22;;;;;;;4.88;1.02;;;;;;;;;;5038376;28;20029;-88
2023/10/13 12:32:01;;;;;;;6.00;1.25;;;;;;;;;;5041606;28;20033;-88
2023/10/13 12:34:56;;;;;;;3.90;1.65;;;;;;;;;;5044050;28;20036;-88
2023/10/13 12:51:20;;;;;;;9.05;1.95;;;;;;;;;;5069707;28;20043;-89
2023/10/13 12:53:49;;;;;;;2.80;1.15;;;;;;;;;;5051111;28;20061;-90
2023/10/13 12:56:16;;;;;;;4.63;1.33;;;;;;;;;;5042270;28;20501;-87
2023/10/13 12:58:51;;;;;;;5.80;1.65;;;;;;;;;;5040432;28;20501;-88
2023/10/13 13:01:20;;;;;;;7.43;2.15;;;;;;;;;;5041336;28;20025;-89
2023/10/13 13:03:46;;;;;;;6.70;1.25;;;;;;;;;;5034757;28;20064;-89
2023/10/13 13:06:17;;;;;;;4.22;1.10;;;;;;;;;;5039305;28;20029;-88
2023/10/13 13:08:46;;;;;;;4.30;1.20;;;;;;;;;;5042408;28;20087;-89
2023/10/13 13:11:12;;;;;;;4.70;1.55;;;;;;;;;;5038514;28;20026;-88
2023/10/13 13:13:38;;;;;;;4.30;1.55;;;;;;;;;;5045961;28;20028;-88
2023/10/13 13:16:04;;;;;;;2.80;1.42;;;;;;;;;;5040627;28;20029;-89
2023/10/13 13:18:30;;;;;;;2.97;1.80;;;;;;;;;;5044557;28;23051;-89
2023/10/13 13:20:56;;;;;;;3.70;1.23;;;;;;;;;;5042819;28;20087;-89
2023/10/13 13:23:25;;;;;;;5.82;1.02;;;;;;;;;;5033738;28;20029;-88
2023/10/13 13:25:51;;;;;;;7.00;1.48;;;;;;;;;;5036516;28;20039;-88
2023/10/13 13:28:18;;;;;;;8.73;1.83;;;;;;;;;;5040506;28;20020;-89
2023/10/13 13:30:44;;;;;;;3.65;1.42;;;;;;;;;;5041558;28;20485;-89
2023/10/13 13:33:14;;;;;;;4.25;1.00;;;;;;;;;;5058515;28;20033;-88
2023/10/13 13:35:42;;;;;;;3.70;1.52;;;;;;;;;;5053884;28;20066;-88
2023/10/13 13:38:29;;;;;;;4.40;1.80;;;;;;;;;;5051745;28;20028;-89
2023/10/13 13:40:55;;;;;;;2.45;1.17;;;;;;;;;;5045661;28;20025;-88
2023/10/13 13:43:31;;;;;;;2.80;1.30;;;;;;;;;;5040736;28;20041;-87
2023/10/13 13:46:03;;;;;;;5.75;1.70;;;;;;;;;;5044429;28;20039;-87
2023/10/13 13:48:30;;;;;;;7.65;1.58;;;;;;;;;;5035926;28;20033;-88
2023/10/13 13:51:04;;;;;;;3.50;1.42;;;;;;;;;;5047825;28;20045;-87
2023/10/13 13:53:32;;;;;;;4.97;1.50;;;;;;;;;;5061898;28;20044;-88
2023/10/13 13:56:02;;;;;;;4.93;1.75;;;;;;;;;;5031329;28;20560;-88
2023/10/13 13:58:28;;;;;;;3.65;1.17;;;;;;;;;;5027792;28;20033;-86
2023/10/13 14:01:00;;;;;;;4.03;1.08;;;;;;;;;;5032505;28;20916;-88
2023/10/13 14:03:32;;;;;;;2.13;1.10;;;;;;;;;;5036020;28;20029;-89
2023/10/13 14:06:03;;;;;;;2.00;0.93;;;;;;;;;;5027888;28;20025;-89
2023/10/13 14:08:29;;;;;;;2.03;1.10;;;;;;;;;;5035701;28;20056;-88
2023/10/13 14:11:17;;;;;;;4.70;1.60;;;;;;;;;;5034361;28;20100;-89
2023/10/13 14:13:49;;;;;;;3.20;1.38;;;;;;;;;;5030332;28;20029;-89
2023/10/13 14:16:19;;;;;;;2.53;1.42;;;;;;;;;;5030570;28;20074;-88
2023/10/13 14:18:49;;;;;;;6.47;1.48;;;;;;;;;;5034485;28;20125;-88
2023/10/13 14:21:19;;;;;;;3.20;1.40;;;;;;;;;;5032799;28;20017;-89
2023/10/13 14:23:48;;;;;;;6.40;1.60;;;;;;;;;;5025205;28;20163;-88
2023/10/13 14:26:21;;;;;;;3.28;1.45;;;;;;;;;;5033881;28;20128;-89
2023/10/13 14:29:09;;;;;;;4.70;1.27;;;;;;;;;;5028034;28;20560;-89
2023/10/13 14:31:42;;;;;;;6.97;1.40;;;;;;;;;;5030366;28;20172;-88
2023/10/13 14:34:08;;;;;;;7.75;1.48;;;;;;;;;;5038216;28;20494;-89
2023/10/13 14:36:34;;;;;;;3.58;1.35;;;;;;;;;;5026296;28;20040;-87
2023/10/13 14:39:09;;;;;;;2.80;1.10;;;;;;;;;;5031367;28;20041;-89
2023/10/13 14:41:35;;;;;;;4.13;1.48;;;;;;;;;;5022904;28;20029;-89
2023/10/13 14:44:05;;;;;;;5.85;0.98;;;;;;;;;;5022210;28;20048;-89
2023/10/13 14:46:31;;;;;;;4.38;1.50;;;;;;;;;;5015031;28;20029;-89
2023/10/13 14:48:57;;;;;;;3.97;1.25;;;;;;;;;;5029537;28;20256;-89
2023/10/13 14:51:25;;;;;;;3.17;1.13;;;;;;;;;;5026939;28;20517;-87
2023/10/13 14:53:55;;;;;;;6.47;1.38;;;;;;;;;;5040015;28;20053;-87
2023/10/13 14:56:26;;;;;;;2.50;1.13;;;;;;;;;;5030919;28;21283;-88
2023/10/13 14:58:52;;;;;;;3.17;1.42;;;;;;;;;;5027114;28;20017;-87
2023/10/13 15:01:19;;;;;;;3.88;1.27;;;;;;;;;;5024691;28;20031;-85
2023/10/13 15:03:48;;;;;;;4.70;1.17;;;22.50;99.90;;;;;;5032945;28;20405;-85
2023/10/13 15:06:18;;;;;;;5.75;1.70;;;;;;;;;;5035227;28;20025;-85
2023/10/13 15:08:48;;;;;;;2.67;1.70;;;;;;;;;;5034534;28;20438;-87
2023/10/13 15:11:15;;;;;;;8.07;1.63;;;;;;;;;;5026060;28;20514;-87
2023/10/13 15:13:41;;;;;;;5.65;1.48;;;;;;;;;;5038179;28;20053;-87
2023/10/13 15:16:16;;;;;;;6.97;1.48;;;;;;;;;;5036404;28;20029;-86
2023/10/13 15:18:44;;;;;;;7.75;2.00;;;;;;;;;;5030548;28;20032;-88
2023/10/13 15:21:10;;;;;;;3.28;1.30;;;;;;;;;;5021674;28;20088;-85
2023/10/13 15:23:42;;;;;;;2.70;1.13;;;;;;;;;;5025274;28;20044;-86
2023/10/13 15:26:09;;;;;;;5.73;1.20;;;;;;;;;;5022587;28;20033;-87
2023/10/13 15:28:48;;;;;;;4.05;1.77;;;;;;;;;;5017710;28;20291;-88
2023/10/13 15:31:22;;;;;;;3.90;1.52;;;;;;;;;;5028526;28;20537;-89
2023/10/13 15:33:57;;;;;;;7.32;1.77;;;;;;;;;;5025335;28;20028;-88
2023/10/13 15:36:23;;;;;;;6.60;2.05;;;;;;;;;;5032128;28;20021;-88
2023/10/13 15:38:51;;;;;;;2.75;1.33;;;;;;;;;;5035241;28;20029;-87
2023/10/13 15:41:21;;;;;;;1.98;1.10;;;;;;;;;;5025329;28;20079;-89
2023/10/13 15:43:51;;;;;;;4.22;1.65;;;;;;;;;;5029352;28;20033;-85
2023/10/13 15:46:18;;;;;;;9.38;2.38;;;;;;;;;;5035875;28;20032;-86
2023/10/13 15:48:47;;;;;;;8.32;1.77;;;;;;;;;;5031851;28;20119;-86
2023/10/13 15:51:13;;;;;;;1.48;0.88;;;;;;;;;;5037419;28;20024;-87
2023/10/13 15:53:43;;;;;;;4.18;1.20;;;;;;;;;;5032285;28;20441;-86
2023/10/13 15:56:14;;;;;;;2.72;1.35;;;;;;;;;;5029678;28;20521;-86
2023/10/13 15:58:40;;;;;;;5.78;1.63;;;;;;;;;;5033662;28;20033;-87
2023/10/13 16:01:07;;;;;;;3.45;1.30;;;;;;;;;;5026314;28;20100;-85
2023/10/13 16:03:34;;;;;;;4.47;1.17;;;;;;;;;;5029524;28;20494;-86
2023/10/13 16:06:04;;;;;;;3.38;1.20;;;;;;;;;;5043128;28;20108;-86
2023/10/13 16:08:33;;;;;;;5.32;1.50;;;;;;;;;;5034402;28;20048;-86
2023/10/13 16:11:07;;;;;;;4.75;2.15;;;;;;;;;;5039161;28;20280;-87
2023/10/13 16:13:33;;;;;;;4.95;1.83;;;;;;;;;;5040894;28;20048;-86
2023/10/13 16:16:00;;;;;;;7.43;1.67;;;;;;;;;;5038134;28;20048;-86
2023/10/13 16:18:26;;;;;;;6.30;2.05;;;;;;;;;;5045311;28;20017;-86
2023/10/13 16:20:54;;;;;;;2.25;1.20;;;;;;;;;;5041756;28;20028;-86
2023/10/13 16:23:20;;;;;;;4.55;1.50;;;;;;;;;;5048977;28;20413;-86
2023/10/13 16:25:47;;;;;;;3.80;1.90;;;;;;;;;;5040935;28;20112;-85
2023/10/13 16:28:22;;;;;;;10.32;1.75;;;;;;;;;;5035672;28;20055;-84
2023/10/13 16:30:49;;;;;;;5.07;1.45;;;;;;;;;;5023398;28;20033;-86
2023/10/13 16:33:15;;;;;;;2.88;1.40;;;;;;;;;;5032612;28;20026;-85
2023/10/13 16:35:45;;;;;;;8.13;2.25;;;;;;;;;;5018291;28;20375;-86
2023/10/13 16:38:11;;;;;;;5.75;2.20;;;;;;;;;;5010676;28;20521;-86
2023/10/13 16:40:40;;;;;;;3.92;1.98;;;;;;;;;;5007819;28;20094;-86
2023/10/13 16:43:07;;;;;;;3.55;1.88;;;;;;;;;;5027478;28;20064;-86
2023/10/13 16:45:45;;;;;;;4.68;2.55;;;;;;;;;;5024133;28;20040;-86
2023/10/13 16:48:13;;;;;;;4.85;2.03;;;;;;;;;;5006228;28;20425;-86
2023/10/13 16:50:41;;;;;;;5.18;2.40;;;;;;;;;;5034418;28;20056;-85
2023/10/13 16:53:07;;;;;;;5.68;2.40;;;;;;;;;;5052398;28;20037;-87
2023/10/13 16:55:34;;;;;;;7.28;2.60;;;;;;;;;;5040182;28;20120;-86
2023/10/13 16:58:01;;;;;;;9.77;2.83;;;;;;;;;;5029241;28;20435;-86
2023/10/13 17:00:27;;;;;;;5.18;2.65;;;;;;;;;;5035571;28;20021;-88
2023/10/13 17:02:53;;;;;;;4.93;2.58;;;;;;;;;;5032625;28;20033;-87
2023/10/13 17:05:19;;;;;;;6.57;2.63;;;;;;;;;;5013324;28;22111;-86
2023/10/13 17:07:51;;;;;;;6.75;2.90;;;;;;;;;;5015405;28;21058;-87
2023/10/13 17:10:17;;;;;;;8.18;3.38;;;;;;;;;;5031493;28;20079;-86
2023/10/13 17:12:43;;;;;;;7.13;2.55;;;;;;;;;;5019515;28;20277;-87
2023/10/13 17:15:22;;;;;;;4.40;2.28;;;;;;;;;;5042102;28;20477;-87
2023/10/13 17:17:49;;;;;;;6.72;2.22;;;;;;;;;;5015477;28;20029;-87
2023/10/13 17:20:17;;;;;;;3.85;1.88;;;;;;;;;;5017382;28;20655;-86
2023/10/13 17:22:43;;;;;;;4.90;2.50;;;;;;;;;;5008608;28;20034;-86
2023/10/13 17:25:12;;;;;;;6.07;2.10;;;;;;;;;;5036560;28;20051;-87
2023/10/13 17:27:39;;;;;;;4.88;2.60;;;;;;;;;;5014345;28;20319;-84
2023/10/13 17:30:05;;;;;;;11.20;3.05;;;;;;;;;;5025679;28;20036;-86
2023/10/13 17:32:32;;;;;;;11.07;2.67;;;;;;;;;;5030123;28;20112;-85
2023/10/13 17:35:00;;;;;;;8.93;5.45;;;;;;;;;;5030724;28;20029;-86
2023/10/13 17:37:27;;;;;;;15.95;7.93;;;;;;;;;;5035531;28;20443;-85
2023/10/13 17:39:53;;;;;;;33.70;13.32;;;;;;;;;;5036698;28;20029;-86
2023/10/13 17:42:18;;;;;;;24.60;9.80;;;;;;;;;;5034376;28;20030;-86
2023/10/13 17:44:44;;;;;;;15.90;7.30;;;;;;;;;;5030656;28;20064;-86
2023/10/13 17:47:12;;;;;;;15.45;7.13;;;;;;;;;;5032249;28;20029;-87
2023/10/13 17:49:39;;;;;;;14.15;6.30;;;;;;;;;;5025948;28;20029;-86
2023/10/13 17:52:05;;;;;;;11.32;5.32;;;;;;;;;;5019499;28;20036;-85
2023/10/13 17:54:31;;;;;;;11.20;3.53;;;;;;;;;;5036272;28;20104;-85
2023/10/13 17:56:57;;;;;;;4.85;2.50;;;;;;;;;;5038463;28;20464;-86
2023/10/13 17:59:23;;;;;;;8.23;2.78;;;;;;;;;;5023175;28;20156;-85
2023/10/13 18:01:51;;;;;;;4.97;2.70;;;;;;;;;;5005718;28;20568;-85
2023/10/13 18:04:18;;;;;;;31.42;10.13;;;;;;;;;;5023062;28;20053;-85
2023/10/13 18:06:44;;;;;;;30.45;10.60;;;;;;;;;;5035494;28;20033;-85
2023/10/13 18:09:13;;;;;;;15.68;6.88;;;;;;;;;;5035034;28;20444;-85
2023/10/13 18:11:42;;;;;;;12.30;3.20;;;;;;;;;;5034802;28;20406;-86
2023/10/13 18:14:08;;;;;;;8.32;3.67;;;;;;;;;;5032095;28;20493;-87
2023/10/13 18:16:35;;;;;;;16.25;4.53;;;;;;;;;;5038119;28;20029;-85
2023/10/13 18:19:07;;;;;;;26.55;9.75;;;;;;;;;;5025565;28;20029;-85
2023/10/13 18:21:34;;;;;;;14.07;6.13;;;14.60;99.90;;;;;;5017477;28;20168;-85